Terminal Aerodrome Forecast
Issued by NWS Wilmington, OH

Current Version | Previous Version | Text Only | Print | Product List | Glossary Off
Versions: 1 2 3 4 5 6 7 8 9 10 11 12 13 14 15 16 17 18 19 20 21 22 23 24 25

000
FTUS41 KILN 262000 AAA
TAFILN
TAF AMD
KILN 262058Z 2621/2718 18011KT P6SM SCT150 OVC250
     FM270300 19006KT P6SM BKN030
     FM271100 20008KT P6SM BKN050
     FM271700 20011KT P6SM VCSH OVC040=

USA.gov is the U.S. government's official web portal to all federal, state and local government web resources and services.